createdAt,value
2023-08-07T00:00:04.325Z,16.85
2023-08-07T00:01:08.170Z,16.84
2023-08-07T00:02:11.317Z,16.82
2023-08-07T00:03:19.652Z,16.83
2023-08-07T00:04:22.577Z,16.85
2023-08-07T00:05:25.306Z,16.89
2023-08-07T00:06:28.178Z,16.83
2023-08-07T00:07:31.248Z,16.84
2023-08-07T00:08:34.373Z,16.87
2023-08-07T00:09:37.052Z,16.70
2023-08-07T00:10:40.085Z,16.83
2023-08-07T00:11:42.850Z,16.36
2023-08-07T00:12:45.996Z,16.84
2023-08-07T00:13:48.744Z,16.83
2023-08-07T00:14:51.878Z,16.84
2023-08-07T00:15:54.638Z,16.84
2023-08-07T00:16:57.470Z,16.80
2023-08-07T00:18:01.579Z,16.51
2023-08-07T00:19:04.545Z,16.82
2023-08-07T00:20:08.713Z,16.79
2023-08-07T00:21:13.229Z,16.82
2023-08-07T00:22:16.044Z,16.80
2023-08-07T00:23:19.170Z,16.81
2023-08-07T00:24:21.939Z,16.83
2023-08-07T00:25:25.063Z,16.88
2023-08-07T00:26:27.804Z,16.89
2023-08-07T00:27:30.558Z,16.90
2023-08-07T00:28:33.847Z,16.90
2023-08-07T00:29:37.484Z,16.85
2023-08-07T00:30:40.311Z,16.83
2023-08-07T00:31:43.262Z,16.80
2023-08-07T00:32:46.196Z,16.80
2023-08-07T00:33:52.954Z,16.80
2023-08-07T00:34:55.685Z,16.79
2023-08-07T00:35:58.570Z,16.77
2023-08-07T00:37:01.439Z,16.80
2023-08-07T00:38:04.528Z,16.81
2023-08-07T00:39:08.930Z,16.81
2023-08-07T00:40:15.905Z,16.78
2023-08-07T00:41:19.582Z,16.79
2023-08-07T00:42:22.365Z,16.78
2023-08-07T00:43:25.236Z,16.78
2023-08-07T00:44:28.327Z,16.76
2023-08-07T00:45:35.802Z,16.79
2023-08-07T00:46:40.469Z,16.80
2023-08-07T00:47:43.473Z,16.71
2023-08-07T00:48:47.017Z,16.77
2023-08-07T00:49:50.310Z,16.74
2023-08-07T00:50:53.502Z,16.56
2023-08-07T00:51:56.672Z,16.74
2023-08-07T00:52:59.965Z,16.77
2023-08-07T00:54:05.175Z,16.75
2023-08-07T00:55:08.615Z,16.77
2023-08-07T00:56:11.508Z,16.48
2023-08-07T00:57:18.314Z,16.71
2023-08-07T00:58:21.212Z,16.70
2023-08-07T00:59:24.101Z,16.65
2023-08-07T01:00:30.106Z,16.60
2023-08-07T01:01:33.037Z,16.71
2023-08-07T01:02:36.654Z,16.73
2023-08-07T01:03:39.789Z,16.73
2023-08-07T01:04:42.569Z,16.67
2023-08-07T01:05:45.657Z,16.66
2023-08-07T01:06:48.394Z,16.65
2023-08-07T01:07:55.527Z,16.69
2023-08-07T01:08:58.844Z,16.63
2023-08-07T01:10:05.016Z,16.63
2023-08-07T01:11:26.442Z,16.71
2023-08-07T01:12:37.398Z,16.58
2023-08-07T01:14:01.778Z,16.54
2023-08-07T01:15:29.397Z,16.60
2023-08-07T01:17:06.543Z,16.48
2023-08-07T01:18:09.369Z,16.50
2023-08-07T01:19:26.187Z,16.53
2023-08-07T01:20:28.964Z,16.54
2023-08-07T01:21:33.864Z,16.51
2023-08-07T01:22:36.933Z,16.51
2023-08-07T01:23:39.816Z,16.53
2023-08-07T01:24:45.121Z,16.57
2023-08-07T01:25:47.831Z,16.60
2023-08-07T01:26:51.727Z,16.54
2023-08-07T01:28:03.430Z,16.54
2023-08-07T01:29:14.933Z,16.55
2023-08-07T01:30:36.801Z,16.54
2023-08-07T01:31:43.215Z,16.43
2023-08-07T01:32:45.930Z,16.56
2023-08-07T01:33:58.152Z,16.58
2023-08-07T01:35:06.683Z,16.58
2023-08-07T01:36:11.952Z,16.57
2023-08-07T01:37:14.894Z,16.60
2023-08-07T01:38:17.916Z,16.58
2023-08-07T01:39:21.658Z,16.54
2023-08-07T01:40:24.897Z,16.46
2023-08-07T01:41:29.970Z,16.47
2023-08-07T01:42:33.627Z,16.47
2023-08-07T01:43:36.897Z,16.43
2023-08-07T01:44:40.330Z,16.46
2023-08-07T01:45:43.188Z,16.37
2023-08-07T01:46:46.049Z,16.39
2023-08-07T01:47:48.930Z,16.34
2023-08-07T01:48:51.765Z,16.34
2023-08-07T01:49:54.954Z,16.30
2023-08-07T01:50:57.784Z,16.31
2023-08-07T01:52:00.500Z,16.32
2023-08-07T01:53:04.860Z,16.39
2023-08-07T01:54:07.645Z,16.35
2023-08-07T01:55:10.756Z,16.32
2023-08-07T01:56:13.420Z,15.94
2023-08-07T01:57:16.417Z,16.29
2023-08-07T01:58:19.189Z,16.17
2023-08-07T01:59:21.993Z,16.19
2023-08-07T02:00:25.037Z,16.16
2023-08-07T02:01:27.607Z,16.19
2023-08-07T02:02:30.821Z,16.15
2023-08-07T02:03:33.782Z,16.15
2023-08-07T02:04:37.034Z,16.15
2023-08-07T02:05:39.906Z,16.18
2023-08-07T02:06:42.770Z,16.13
2023-08-07T02:07:46.082Z,16.14
2023-08-07T02:08:48.833Z,16.09
2023-08-07T02:09:52.122Z,16.04
2023-08-07T02:10:54.996Z,16.10
2023-08-07T02:11:57.705Z,16.07
2023-08-07T02:13:00.785Z,15.85
2023-08-07T02:14:04.058Z,15.97
2023-08-07T02:15:07.477Z,16.03
2023-08-07T02:16:10.371Z,16.05
2023-08-07T02:17:13.519Z,16.09
2023-08-07T02:18:17.234Z,15.99
2023-08-07T02:19:21.148Z,15.95
2023-08-07T02:20:23.923Z,15.89
2023-08-07T02:21:26.649Z,15.93
2023-08-07T02:22:29.724Z,15.96
2023-08-07T02:23:32.445Z,15.93
2023-08-07T02:24:37.172Z,15.92
2023-08-07T02:25:39.880Z,15.80
2023-08-07T02:26:42.652Z,15.81
2023-08-07T02:27:45.894Z,15.90
2023-08-07T02:28:48.641Z,15.90
2023-08-07T02:29:52.294Z,15.88
2023-08-07T02:30:55.559Z,15.80
2023-08-07T02:31:58.418Z,15.83
2023-08-07T02:33:01.546Z,15.83
2023-08-07T02:34:04.361Z,15.84
2023-08-07T02:35:08.161Z,15.85
2023-08-07T02:36:11.031Z,15.83
2023-08-07T02:37:13.948Z,15.81
2023-08-07T02:38:17.096Z,15.77
2023-08-07T02:39:19.948Z,15.74
2023-08-07T02:40:22.720Z,15.68
2023-08-07T02:41:25.487Z,15.29
2023-08-07T02:42:28.310Z,15.63
2023-08-07T02:43:34.191Z,15.61
2023-08-07T02:44:37.089Z,15.58
2023-08-07T02:45:39.937Z,15.60
2023-08-07T02:46:42.742Z,15.59
2023-08-07T02:47:45.535Z,15.56
2023-08-07T02:48:48.679Z,15.55
2023-08-07T02:49:51.474Z,15.60
2023-08-07T02:50:54.748Z,15.57
2023-08-07T02:51:57.512Z,15.61
2023-08-07T02:53:01.937Z,15.51
2023-08-07T02:54:05.312Z,15.63
2023-08-07T02:55:08.460Z,15.62
2023-08-07T02:56:11.924Z,15.63
2023-08-07T02:57:14.850Z,15.69
2023-08-07T02:58:17.619Z,15.69
2023-08-07T02:59:20.853Z,15.69
2023-08-07T03:00:25.365Z,15.66
2023-08-07T03:01:28.924Z,15.61
2023-08-07T03:02:31.766Z,15.64
2023-08-07T03:03:34.517Z,15.67
2023-08-07T03:04:37.679Z,15.67
2023-08-07T03:05:40.451Z,15.67
2023-08-07T03:06:43.320Z,15.68
2023-08-07T03:07:46.120Z,15.56
2023-08-07T03:08:48.924Z,15.52
2023-08-07T03:09:52.355Z,15.53
2023-08-07T03:10:57.382Z,15.52
2023-08-07T03:12:04.707Z,15.57
2023-08-07T03:13:08.300Z,15.61
2023-08-07T03:14:11.448Z,15.61
2023-08-07T03:15:14.562Z,15.41
2023-08-07T03:16:17.462Z,15.56
2023-08-07T03:17:21.879Z,15.56
2023-08-07T03:18:24.819Z,15.56
2023-08-07T03:19:27.580Z,15.47
2023-08-07T03:20:30.717Z,15.37
2023-08-07T03:21:33.494Z,15.33
2023-08-07T03:22:36.259Z,15.32
2023-08-07T03:23:39.037Z,15.27
2023-08-07T03:24:41.991Z,15.28
2023-08-07T03:25:45.088Z,15.17
2023-08-07T03:26:50.344Z,15.20
2023-08-07T03:27:53.261Z,15.22
2023-08-07T03:28:55.962Z,15.19
2023-08-07T03:29:58.787Z,15.23
2023-08-07T03:31:02.800Z,15.26
2023-08-07T03:32:05.970Z,15.27
2023-08-07T03:33:09.521Z,15.33
2023-08-07T03:34:12.839Z,15.28
2023-08-07T03:35:15.805Z,15.27
2023-08-07T03:36:19.107Z,15.32
2023-08-07T03:37:21.822Z,15.32
2023-08-07T03:38:24.534Z,15.37
2023-08-07T03:39:27.912Z,15.36
2023-08-07T03:40:30.706Z,15.37
2023-08-07T03:41:33.784Z,15.29
2023-08-07T03:42:36.770Z,15.31
2023-08-07T03:43:39.613Z,15.39
2023-08-07T03:44:42.445Z,15.42
2023-08-07T03:45:45.275Z,15.41
2023-08-07T03:46:48.613Z,15.41
2023-08-07T03:47:51.395Z,15.42
2023-08-07T03:48:54.209Z,15.37
2023-08-07T03:49:57.174Z,15.37
2023-08-07T03:51:07.057Z,15.47
2023-08-07T03:52:11.372Z,15.47
2023-08-07T03:53:14.338Z,15.37
2023-08-07T03:54:17.524Z,15.35
2023-08-07T03:55:20.813Z,15.36
2023-08-07T03:56:23.586Z,15.30
2023-08-07T03:57:27.277Z,15.32
2023-08-07T03:58:30.661Z,15.35
2023-08-07T03:59:33.990Z,15.39
2023-08-07T04:00:36.974Z,15.42
2023-08-07T04:01:40.154Z,15.35
2023-08-07T04:02:43.012Z,15.36
2023-08-07T04:03:48.860Z,15.43
2023-08-07T04:04:51.794Z,15.45
2023-08-07T04:05:55.311Z,15.55
2023-08-07T04:06:58.732Z,15.61
2023-08-07T04:08:01.448Z,15.59
2023-08-07T04:09:04.766Z,15.57
2023-08-07T04:10:07.695Z,15.61
2023-08-07T04:11:11.909Z,15.56
2023-08-07T04:12:15.142Z,15.59
2023-08-07T04:13:17.861Z,15.58
2023-08-07T04:14:20.588Z,15.60
2023-08-07T04:15:23.563Z,15.48
2023-08-07T04:16:26.486Z,15.47
2023-08-07T04:17:30.233Z,15.47
2023-08-07T04:18:34.082Z,15.49
2023-08-07T04:19:37.460Z,15.46
2023-08-07T04:20:40.699Z,15.52
2023-08-07T04:21:43.413Z,15.49
2023-08-07T04:22:47.265Z,15.57
2023-08-07T04:23:50.129Z,15.59
2023-08-07T04:24:52.903Z,15.62
2023-08-07T04:25:56.090Z,15.63
2023-08-07T04:26:58.896Z,15.68
2023-08-07T04:28:02.041Z,15.78
2023-08-07T04:29:05.237Z,15.82
2023-08-07T04:30:08.635Z,15.87
2023-08-07T04:31:11.997Z,15.93
2023-08-07T04:32:14.937Z,16.04
2023-08-07T04:33:18.427Z,15.98
2023-08-07T04:34:21.164Z,16.11
2023-08-07T04:35:23.819Z,16.07
2023-08-07T04:36:26.495Z,16.20
2023-08-07T04:37:31.465Z,16.32
2023-08-07T04:38:35.328Z,16.32
2023-08-07T04:39:38.038Z,16.35
2023-08-07T04:40:45.527Z,16.30
2023-08-07T04:41:50.842Z,16.30
2023-08-07T04:42:53.621Z,16.32
2023-08-07T04:43:56.741Z,16.41
2023-08-07T04:44:59.429Z,16.50
2023-08-07T04:46:02.241Z,16.47
2023-08-07T04:47:05.313Z,16.43
2023-08-07T04:48:08.992Z,16.41
2023-08-07T04:49:12.041Z,16.38
2023-08-07T04:50:14.705Z,16.11
2023-08-07T04:51:17.326Z,16.48
2023-08-07T04:52:25.945Z,16.50
2023-08-07T04:53:29.629Z,16.49
2023-08-07T04:54:33.146Z,16.54
2023-08-07T04:55:36.202Z,16.54
2023-08-07T04:56:39.090Z,16.61
2023-08-07T04:57:41.732Z,16.60
2023-08-07T04:58:44.553Z,16.54
2023-08-07T04:59:47.547Z,16.52
2023-08-07T05:00:58.524Z,16.46
2023-08-07T05:02:01.284Z,16.53
2023-08-07T05:03:04.150Z,16.43
2023-08-07T05:04:06.998Z,16.28
2023-08-07T05:05:10.874Z,16.39
2023-08-07T05:06:13.681Z,16.44
2023-08-07T05:07:16.463Z,16.44
2023-08-07T05:08:19.083Z,16.49
2023-08-07T05:09:21.793Z,16.54
2023-08-07T05:10:24.758Z,16.57
2023-08-07T05:11:27.522Z,16.37
2023-08-07T05:12:30.771Z,16.44
2023-08-07T05:13:33.443Z,16.48
2023-08-07T05:14:36.099Z,16.51
2023-08-07T05:15:39.097Z,16.20
2023-08-07T05:16:41.839Z,16.33
2023-08-07T05:17:44.566Z,16.41
2023-08-07T05:18:49.262Z,16.40
2023-08-07T05:19:53.824Z,16.14
2023-08-07T05:20:56.865Z,16.30
2023-08-07T05:21:59.504Z,16.38
2023-08-07T05:23:02.157Z,16.41
2023-08-07T05:24:06.071Z,15.41
2023-08-07T05:25:10.439Z,15.88
2023-08-07T05:26:13.380Z,16.36
2023-08-07T05:27:16.490Z,16.46
2023-08-07T05:28:19.152Z,16.44
2023-08-07T05:29:22.017Z,16.16
2023-08-07T05:30:24.720Z,16.54
2023-08-07T05:31:29.643Z,16.32
2023-08-07T05:32:34.043Z,16.32
2023-08-07T05:33:36.868Z,16.60
2023-08-07T05:34:40.333Z,16.62
2023-08-07T05:35:43.015Z,16.64
2023-08-07T05:36:45.934Z,16.76
2023-08-07T05:37:48.624Z,16.84
2023-08-07T05:38:51.269Z,16.60
2023-08-07T05:39:54.482Z,17.07
2023-08-07T05:41:00.205Z,17.06
2023-08-07T05:42:03.568Z,17.04
2023-08-07T05:43:06.213Z,17.02
2023-08-07T05:44:08.952Z,17.02
2023-08-07T05:45:11.970Z,17.07
2023-08-07T05:46:14.575Z,17.05
2023-08-07T05:47:17.589Z,17.08
2023-08-07T05:48:20.266Z,17.11
2023-08-07T05:49:25.534Z,17.16
2023-08-07T05:50:29.232Z,17.12
2023-08-07T05:51:32.015Z,17.11
2023-08-07T05:52:35.149Z,17.16
2023-08-07T05:53:38.240Z,17.30
2023-08-07T05:54:41.003Z,17.22
2023-08-07T05:55:43.740Z,17.21
2023-08-07T05:56:46.527Z,17.28
2023-08-07T05:57:51.302Z,17.32
2023-08-07T05:58:53.973Z,17.22
2023-08-07T05:59:56.673Z,17.06
2023-08-07T06:00:59.462Z,17.05
2023-08-07T06:02:02.696Z,17.07
2023-08-07T06:03:05.674Z,17.17
2023-08-07T06:04:08.908Z,17.66
2023-08-07T06:05:14.062Z,17.84
2023-08-07T06:06:16.909Z,17.96
2023-08-07T06:07:19.963Z,18.03
2023-08-07T06:08:23.134Z,18.38
2023-08-07T06:09:28.374Z,18.11
2023-08-07T06:10:31.550Z,18.33
2023-08-07T06:11:34.484Z,18.25
2023-08-07T06:12:37.773Z,18.21
2023-08-07T06:13:42.283Z,18.41
2023-08-07T06:14:45.304Z,18.47
2023-08-07T06:15:48.133Z,18.46
2023-08-07T06:16:50.791Z,18.65
2023-08-07T06:17:54.262Z,18.72
2023-08-07T06:18:57.152Z,18.96
2023-08-07T06:20:00.570Z,19.09
2023-08-07T06:21:03.750Z,18.85
2023-08-07T06:22:06.650Z,18.59
2023-08-07T06:23:09.516Z,18.90
2023-08-07T06:24:12.478Z,19.17
2023-08-07T06:25:15.379Z,19.16
2023-08-07T06:26:18.105Z,19.28
2023-08-07T06:27:23.600Z,18.98
2023-08-07T06:28:27.213Z,19.66
2023-08-07T06:29:30.672Z,19.65
2023-08-07T06:30:35.827Z,19.73
2023-08-07T06:31:38.696Z,19.47
2023-08-07T06:32:41.545Z,19.55
2023-08-07T06:33:44.706Z,19.33
2023-08-07T06:34:47.973Z,19.52
2023-08-07T06:35:53.962Z,19.43
2023-08-07T06:36:57.045Z,19.06
2023-08-07T06:38:03.259Z,19.04
2023-08-07T06:39:06.611Z,19.06
2023-08-07T06:40:11.038Z,18.84
2023-08-07T06:41:14.333Z,19.11
2023-08-07T06:42:20.021Z,18.97
2023-08-07T06:43:23.244Z,18.81
2023-08-07T06:44:27.259Z,18.81
2023-08-07T06:45:30.008Z,18.46
2023-08-07T06:46:33.272Z,18.60
2023-08-07T06:47:36.109Z,18.66
2023-08-07T06:48:39.046Z,18.46
2023-08-07T06:49:45.253Z,18.12
2023-08-07T06:50:49.112Z,18.53
2023-08-07T06:51:52.153Z,18.65
2023-08-07T06:52:55.542Z,18.48
2023-08-07T06:54:02.787Z,18.29
2023-08-07T06:55:09.116Z,18.59
2023-08-07T06:56:12.105Z,18.75
2023-08-07T06:57:15.167Z,18.82
2023-08-07T06:58:18.388Z,18.60
2023-08-07T06:59:21.882Z,18.77
2023-08-07T07:00:24.972Z,18.66
2023-08-07T07:01:27.675Z,18.90
2023-08-07T07:02:30.590Z,18.87
2023-08-07T07:03:33.666Z,19.08
2023-08-07T07:04:38.033Z,19.18
2023-08-07T07:05:44.252Z,19.32
2023-08-07T07:06:47.456Z,19.38
2023-08-07T07:07:50.442Z,19.44
2023-08-07T07:08:56.705Z,19.72
2023-08-07T07:10:01.873Z,19.45
2023-08-07T07:11:06.451Z,19.42
2023-08-07T07:12:09.759Z,19.35
2023-08-07T07:13:12.379Z,19.36
2023-08-07T07:14:15.195Z,18.91
2023-08-07T07:15:18.414Z,19.22
2023-08-07T07:16:23.409Z,19.58
2023-08-07T07:17:28.657Z,19.62
2023-08-07T07:18:31.381Z,19.93
2023-08-07T07:19:34.584Z,19.88
2023-08-07T07:20:37.271Z,19.68
2023-08-07T07:21:40.425Z,20.23
2023-08-07T07:22:43.108Z,20.25
2023-08-07T07:23:45.859Z,20.27
2023-08-07T07:24:49.020Z,20.27
2023-08-07T07:25:51.858Z,20.38
2023-08-07T07:26:55.156Z,20.59
2023-08-07T07:27:58.199Z,20.50
2023-08-07T07:29:01.273Z,20.72
2023-08-07T07:30:04.253Z,20.43
2023-08-07T07:31:09.741Z,20.34
2023-08-07T07:32:12.914Z,20.36
2023-08-07T07:33:15.961Z,20.40
2023-08-07T07:34:18.642Z,20.42
2023-08-07T07:35:21.474Z,20.87
2023-08-07T07:36:24.402Z,21.40
2023-08-07T07:37:27.609Z,21.82
2023-08-07T07:38:30.766Z,21.61
2023-08-07T07:39:35.813Z,21.71
2023-08-07T07:40:39.076Z,21.32
2023-08-07T07:41:41.691Z,21.03
2023-08-07T07:42:44.709Z,20.69
2023-08-07T07:43:48.249Z,20.57
2023-08-07T07:44:50.971Z,20.44
2023-08-07T07:45:53.828Z,20.22
2023-08-07T07:46:56.688Z,19.96
2023-08-07T07:48:00.131Z,20.35
2023-08-07T07:49:04.838Z,19.77
2023-08-07T07:50:10.184Z,20.32
2023-08-07T07:51:12.948Z,20.47
2023-08-07T07:52:16.448Z,20.76
2023-08-07T07:53:19.745Z,21.24
2023-08-07T07:54:22.608Z,20.87
2023-08-07T07:55:27.091Z,20.97
2023-08-07T07:56:29.992Z,20.67
2023-08-07T07:57:32.710Z,20.55
2023-08-07T07:58:36.019Z,20.27
2023-08-07T07:59:38.890Z,20.29
2023-08-07T08:00:42.170Z,20.32
2023-08-07T08:01:45.358Z,20.45
2023-08-07T08:02:48.280Z,20.63
2023-08-07T08:03:51.183Z,20.69
2023-08-07T08:04:57.528Z,20.83
2023-08-07T08:06:01.262Z,20.70
2023-08-07T08:07:05.134Z,20.65
2023-08-07T08:08:11.641Z,20.49
2023-08-07T08:09:14.393Z,20.66
2023-08-07T08:10:17.587Z,20.70
2023-08-07T08:11:20.373Z,20.47
2023-08-07T08:12:23.546Z,20.07
2023-08-07T08:13:26.784Z,20.52
2023-08-07T08:14:31.627Z,20.84
2023-08-07T08:15:40.362Z,20.96
2023-08-07T08:16:43.138Z,20.65
2023-08-07T08:17:46.232Z,21.26
2023-08-07T08:18:48.995Z,21.12
2023-08-07T08:19:51.910Z,20.87
2023-08-07T08:20:55.390Z,21.12
2023-08-07T08:21:58.372Z,21.02
2023-08-07T08:23:01.681Z,21.18
2023-08-07T08:24:05.690Z,21.36
2023-08-07T08:25:09.112Z,21.07
2023-08-07T08:26:11.826Z,21.10
2023-08-07T08:27:14.600Z,20.99
2023-08-07T08:28:18.745Z,20.87
2023-08-07T08:29:21.477Z,21.12
2023-08-07T08:30:24.262Z,21.17
2023-08-07T08:31:27.028Z,21.19
2023-08-07T08:32:29.968Z,21.83
2023-08-07T08:33:32.961Z,21.73
2023-08-07T08:34:35.672Z,21.79
2023-08-07T08:35:38.348Z,21.57
2023-08-07T08:36:44.249Z,21.47
2023-08-07T08:37:47.053Z,21.56
2023-08-07T08:38:50.113Z,21.60
2023-08-07T08:39:52.734Z,21.52
2023-08-07T08:40:55.384Z,21.81
2023-08-07T08:41:59.003Z,22.20
2023-08-07T08:43:02.326Z,21.77
2023-08-07T08:44:07.432Z,21.73
2023-08-07T08:45:13.703Z,21.72
2023-08-07T08:46:19.809Z,21.59
2023-08-07T08:47:27.687Z,21.72
2023-08-07T08:48:32.696Z,21.41
2023-08-07T08:49:46.998Z,22.55
2023-08-07T08:50:51.494Z,23.20
2023-08-07T08:51:54.774Z,22.94
2023-08-07T08:52:58.271Z,22.69
2023-08-07T08:54:02.935Z,22.56
2023-08-07T08:55:07.818Z,22.39
2023-08-07T08:56:10.934Z,22.33
2023-08-07T08:57:14.292Z,22.85
2023-08-07T08:58:17.924Z,23.34
2023-08-07T08:59:22.831Z,23.47
2023-08-07T09:00:27.170Z,23.11
2023-08-07T09:01:31.849Z,22.71
2023-08-07T09:02:35.305Z,22.39
2023-08-07T09:03:40.906Z,22.18
2023-08-07T09:04:45.838Z,22.23
2023-08-07T09:05:53.870Z,22.06
2023-08-07T09:06:58.618Z,21.72
2023-08-07T09:08:02.567Z,22.16
2023-08-07T09:09:06.343Z,22.11
2023-08-07T09:10:12.524Z,22.60
2023-08-07T09:11:16.042Z,23.06
2023-08-07T09:12:24.225Z,22.58
2023-08-07T09:13:29.393Z,22.32
2023-08-07T09:14:38.173Z,22.10
2023-08-07T09:15:41.227Z,22.05
2023-08-07T09:16:49.495Z,21.79
2023-08-07T09:17:53.980Z,21.60
2023-08-07T09:18:56.768Z,21.19
2023-08-07T09:20:00.346Z,21.24
2023-08-07T09:21:03.508Z,21.00
2023-08-07T09:22:07.814Z,21.06
2023-08-07T09:23:10.569Z,20.98
2023-08-07T09:24:13.565Z,21.19
2023-08-07T09:25:27.345Z,21.12
2023-08-07T09:26:30.234Z,21.07
2023-08-07T09:27:34.326Z,20.75
2023-08-07T09:28:37.306Z,21.47
2023-08-07T09:29:41.293Z,21.37
2023-08-07T09:30:45.558Z,21.84
2023-08-07T09:31:48.936Z,21.87
2023-08-07T09:32:51.957Z,21.84
2023-08-07T09:33:54.721Z,21.71
2023-08-07T09:34:57.537Z,21.18
2023-08-07T09:36:02.081Z,21.11
2023-08-07T09:37:04.955Z,22.10
2023-08-07T09:38:09.086Z,21.63
2023-08-07T09:39:12.803Z,21.71
2023-08-07T09:40:17.093Z,21.88
2023-08-07T09:41:22.915Z,21.81
2023-08-07T09:42:25.660Z,21.89
2023-08-07T09:43:29.574Z,21.81
2023-08-07T09:44:38.696Z,21.70
2023-08-07T09:45:41.408Z,21.53
2023-08-07T09:46:45.534Z,21.37
2023-08-07T09:47:58.175Z,21.85
2023-08-07T09:49:01.321Z,21.44
2023-08-07T09:50:04.313Z,21.58
2023-08-07T09:51:07.207Z,21.58
2023-08-07T09:52:12.162Z,21.47
2023-08-07T09:53:14.851Z,21.98
2023-08-07T09:54:17.832Z,22.24
2023-08-07T09:55:20.728Z,22.62
2023-08-07T09:56:23.527Z,22.71
2023-08-07T09:57:26.866Z,22.39
2023-08-07T09:58:30.480Z,22.88
2023-08-07T09:59:34.432Z,23.16
2023-08-07T10:00:37.206Z,23.07
2023-08-07T10:01:41.532Z,22.36
2023-08-07T10:02:44.571Z,22.10
2023-08-07T10:03:47.653Z,21.97
2023-08-07T10:04:51.856Z,22.15
2023-08-07T10:05:55.100Z,22.84
2023-08-07T10:06:59.002Z,22.52
2023-08-07T10:08:02.332Z,22.74
2023-08-07T10:09:05.298Z,23.20
2023-08-07T10:10:09.267Z,23.06
2023-08-07T10:11:12.803Z,22.70
2023-08-07T10:12:18.048Z,22.57
2023-08-07T10:13:28.074Z,22.28
2023-08-07T10:14:43.031Z,22.44
2023-08-07T10:15:46.559Z,22.47
2023-08-07T10:16:50.645Z,22.90
2023-08-07T10:17:53.847Z,23.20
2023-08-07T10:18:56.885Z,23.23
2023-08-07T10:19:59.818Z,23.61
2023-08-07T10:21:06.863Z,23.56
2023-08-07T10:22:09.726Z,23.20
2023-08-07T10:23:14.060Z,22.68
2023-08-07T10:24:17.410Z,22.33
2023-08-07T10:25:23.909Z,22.64
2023-08-07T10:26:27.595Z,23.21
2023-08-07T10:27:37.264Z,23.31
2023-08-07T10:28:42.782Z,23.42
2023-08-07T10:29:48.705Z,23.75
2023-08-07T10:30:52.145Z,23.82
2023-08-07T10:31:55.620Z,23.97
2023-08-07T10:32:59.672Z,23.47
2023-08-07T10:34:03.387Z,24.14
2023-08-07T10:35:06.681Z,23.49
2023-08-07T10:36:11.303Z,23.13
2023-08-07T10:37:33.075Z,23.72
2023-08-07T10:38:36.818Z,23.23
2023-08-07T10:40:04.142Z,23.11
2023-08-07T10:41:08.992Z,23.20
2023-08-07T10:42:13.237Z,22.93
2023-08-07T10:43:19.024Z,22.24
2023-08-07T10:44:34.902Z,22.19
2023-08-07T10:45:38.070Z,22.62
2023-08-07T10:46:58.006Z,23.00
2023-08-07T10:48:12.002Z,23.07
2023-08-07T10:49:33.375Z,23.14
2023-08-07T10:50:49.836Z,23.56
2023-08-07T10:51:53.154Z,23.31
2023-08-07T10:52:55.792Z,23.30
2023-08-07T10:53:58.522Z,23.86
2023-08-07T10:55:01.158Z,24.23
2023-08-07T10:56:05.288Z,24.26
2023-08-07T10:57:11.746Z,24.22
2023-08-07T10:58:37.502Z,24.02
2023-08-07T10:59:44.860Z,24.41
2023-08-07T11:00:47.528Z,24.75
2023-08-07T11:01:56.928Z,24.40
2023-08-07T11:03:02.107Z,24.37
2023-08-07T11:04:11.200Z,24.04
2023-08-07T11:05:14.154Z,24.31
2023-08-07T11:06:18.409Z,23.83
2023-08-07T11:07:28.521Z,23.13
2023-08-07T11:08:31.952Z,23.07
2023-08-07T11:09:35.119Z,22.93
2023-08-07T11:10:37.812Z,22.62
2023-08-07T11:11:46.116Z,23.29
2023-08-07T11:12:49.822Z,23.41
2023-08-07T11:13:52.815Z,23.29
2023-08-07T11:14:58.132Z,23.16
2023-08-07T11:16:03.250Z,22.86
2023-08-07T11:17:06.800Z,22.92
2023-08-07T11:18:10.132Z,22.92
2023-08-07T11:19:15.399Z,22.83
2023-08-07T11:20:18.426Z,23.08
2023-08-07T11:21:21.666Z,23.21
2023-08-07T11:22:24.634Z,22.96
2023-08-07T11:23:28.427Z,23.13
2023-08-07T11:24:31.370Z,23.11
2023-08-07T11:25:34.178Z,22.83
2023-08-07T11:26:36.938Z,23.07
2023-08-07T11:27:39.678Z,23.14
2023-08-07T11:28:42.387Z,23.12
2023-08-07T11:29:49.735Z,23.01
2023-08-07T11:30:54.377Z,22.82
2023-08-07T11:31:57.688Z,22.39
2023-08-07T11:33:03.197Z,22.98
2023-08-07T11:34:05.976Z,23.41
2023-08-07T11:35:09.460Z,23.01
2023-08-07T11:36:13.961Z,23.17
2023-08-07T11:37:18.488Z,23.11
2023-08-07T11:38:32.202Z,23.11
2023-08-07T11:39:43.113Z,22.68
2023-08-07T11:40:46.105Z,22.77
2023-08-07T11:41:49.301Z,23.13
2023-08-07T11:42:52.016Z,23.11
2023-08-07T11:43:54.694Z,23.06
2023-08-07T11:44:57.363Z,23.54
2023-08-07T11:46:02.840Z,23.53
2023-08-07T11:47:06.222Z,23.20
2023-08-07T11:48:08.870Z,23.12
2023-08-07T11:49:12.416Z,23.09
2023-08-07T11:50:15.329Z,22.65
2023-08-07T11:51:18.334Z,22.49
2023-08-07T11:52:21.325Z,22.82
2023-08-07T11:53:28.070Z,23.04
2023-08-07T11:54:39.909Z,23.12
2023-08-07T11:55:58.322Z,22.89
2023-08-07T11:57:01.566Z,22.36
2023-08-07T11:58:04.865Z,23.40
2023-08-07T11:59:08.141Z,23.43
2023-08-07T12:00:14.439Z,23.23
2023-08-07T12:01:22.163Z,23.23
2023-08-07T12:02:26.613Z,22.99
2023-08-07T12:03:31.229Z,23.32
2023-08-07T12:04:36.900Z,23.04
2023-08-07T12:05:42.146Z,22.98
2023-08-07T12:06:58.604Z,23.21
2023-08-07T12:08:01.894Z,23.10
2023-08-07T12:09:04.828Z,22.86
2023-08-07T12:10:12.074Z,22.59
2023-08-07T12:11:16.827Z,22.75
2023-08-07T12:12:20.753Z,23.09
2023-08-07T12:13:29.779Z,22.83
2023-08-07T12:14:32.821Z,23.01
2023-08-07T12:15:35.521Z,23.23
2023-08-07T12:16:38.414Z,23.26
2023-08-07T12:17:41.474Z,23.02
2023-08-07T12:18:49.156Z,22.63
2023-08-07T12:19:51.911Z,22.55
2023-08-07T12:21:00.491Z,22.51
2023-08-07T12:22:05.271Z,22.47
2023-08-07T12:23:15.569Z,22.50
2023-08-07T12:24:19.271Z,22.19
2023-08-07T12:25:21.945Z,21.97
2023-08-07T12:26:25.076Z,22.02
2023-08-07T12:27:27.824Z,21.93
2023-08-07T12:28:30.771Z,22.18
2023-08-07T12:29:33.477Z,22.44
2023-08-07T12:30:37.243Z,22.61
2023-08-07T12:31:40.342Z,22.68
2023-08-07T12:32:43.196Z,22.58
2023-08-07T12:33:46.259Z,22.64
2023-08-07T12:35:57.515Z,23.40
2023-08-07T12:37:00.554Z,23.21
2023-08-07T12:38:04.233Z,23.26
2023-08-07T12:39:07.800Z,23.10
2023-08-07T12:42:24.892Z,22.81
2023-08-07T12:43:27.862Z,23.26
2023-08-07T12:44:30.890Z,23.09
2023-08-07T12:46:41.323Z,23.20
2023-08-07T12:47:44.129Z,22.96
2023-08-07T12:48:46.814Z,22.74
2023-08-07T12:49:50.004Z,23.07
2023-08-07T12:50:52.612Z,22.97
2023-08-07T12:51:57.030Z,23.23
2023-08-07T12:53:00.220Z,23.27
2023-08-07T12:54:02.992Z,23.25
2023-08-07T12:55:06.863Z,23.16
2023-08-07T12:56:09.720Z,23.40
2023-08-07T12:57:12.424Z,23.67
2023-08-07T12:58:16.589Z,23.49
2023-08-07T12:59:19.290Z,23.51
2023-08-07T13:00:23.453Z,23.37
2023-08-07T13:01:27.029Z,23.38
2023-08-07T13:02:29.907Z,23.83
2023-08-07T13:03:32.538Z,23.39
2023-08-07T13:04:35.438Z,23.50
2023-08-07T13:05:38.671Z,23.04
2023-08-07T13:06:41.546Z,22.84
2023-08-07T13:07:44.510Z,23.09
2023-08-07T13:08:47.402Z,23.23
2023-08-07T13:09:50.048Z,23.33
2023-08-07T13:10:53.132Z,22.52
2023-08-07T13:11:55.825Z,22.75
2023-08-07T13:12:58.527Z,22.63
2023-08-07T13:14:01.228Z,22.59
2023-08-07T13:15:09.384Z,22.90
2023-08-07T13:16:12.300Z,22.86
2023-08-07T13:17:15.092Z,22.55
2023-08-07T13:18:18.014Z,21.93
2023-08-07T13:19:20.841Z,22.03
2023-08-07T13:20:23.624Z,21.85
2023-08-07T13:21:26.724Z,22.02
2023-08-07T13:22:29.615Z,22.05
2023-08-07T13:23:32.337Z,21.93
2023-08-07T13:24:35.018Z,22.32
2023-08-07T13:25:37.804Z,22.26
2023-08-07T13:26:45.913Z,22.26
2023-08-07T13:27:48.540Z,21.98
2023-08-07T13:28:51.535Z,21.60
2023-08-07T13:29:54.181Z,22.10
2023-08-07T13:30:57.547Z,22.14
2023-08-07T13:32:00.626Z,21.53
2023-08-07T13:33:03.420Z,22.30
2023-08-07T13:34:09.593Z,22.31
2023-08-07T13:35:13.290Z,22.46
2023-08-07T13:36:15.949Z,22.42
2023-08-07T13:37:19.026Z,22.34
2023-08-07T13:38:21.707Z,22.34
2023-08-07T13:39:24.407Z,22.19
2023-08-07T13:40:27.497Z,22.13
2023-08-07T13:41:30.182Z,22.04
2023-08-07T13:42:34.051Z,21.77
2023-08-07T13:43:36.799Z,21.95
2023-08-07T13:44:39.605Z,21.72
2023-08-07T13:45:42.415Z,22.01
2023-08-07T13:46:46.325Z,21.75
2023-08-07T13:47:50.156Z,21.69
2023-08-07T13:48:53.752Z,21.58
2023-08-07T13:49:57.530Z,21.50